Flight Track Log - Related Links

Times and Time Zones

All times are in EDT time to prevent confusion due to time zone crossing. See the SVA1484 flight status page for this flight to view local times or setup timezone preferences in your user account.

Time Position Orientation Groundspeed Altitude Reporting Facility
EDT Latitude Longitude Course Direction KTS MPH feet Rate Location/Type
Mon 09:38:00 AM 21.9195 39.3902 42° Northeast  Level Estimated
Mon 09:39:00 AM 22.0180 39.4864 42° Northeast  Level Estimated
Mon 09:40:00 AM 22.1164 39.5827 42° Northeast  Level Estimated
Mon 09:41:00 AM 22.2147 39.6791 42° Northeast  Level Estimated
Mon 09:42:00 AM 22.3130 39.7757 42° Northeast  Level Estimated
Mon 09:43:00 AM 22.4112 39.8724 42° Northeast  Level Estimated
Mon 09:44:00 AM 22.5094 39.9693 42° Northeast  Level Estimated
Mon 09:45:00 AM 22.6075 40.0663 42° Northeast  Level Estimated
Mon 09:46:00 AM 22.7055 40.1634 42° Northeast  Level Estimated
Mon 09:47:00 AM 22.8035 40.2607 42° Northeast  Level Estimated
Mon 09:48:00 AM 22.9015 40.3581 42° Northeast  Level Estimated
Mon 09:49:00 AM 22.9993 40.4556 43° Northeast  Level Estimated
Mon 09:50:00 AM 23.0971 40.5533 43° Northeast  Level Estimated
Mon 09:51:00 AM 23.1949 40.6511 43° Northeast  Level Estimated
Mon 09:52:00 AM 23.2926 40.7491 43° Northeast  Level Estimated
Mon 09:53:00 AM 23.3902 40.8472 43° Northeast  Level Estimated
Mon 09:54:00 AM 23.4878 40.9455 43° Northeast  Level Estimated
Mon 09:55:00 AM 23.5853 41.0439 43° Northeast  Level Estimated
Mon 09:56:00 AM 23.6827 41.1425 43° Northeast  Level Estimated
Mon 09:57:00 AM 23.7801 41.2412 43° Northeast  Level Estimated
Mon 09:58:00 AM 23.8774 41.3400 43° Northeast  Level Estimated
Mon 09:59:00 AM 23.9747 41.4390 43° Northeast  Level Estimated
Mon 10:00:00 AM 24.0719 41.5382 43° Northeast  Level Estimated
Mon 10:01:00 AM 24.1690 41.6375 43° Northeast  Level Estimated
Mon 10:02:00 AM 24.2661 41.7369 43° Northeast  Level Estimated
Mon 10:03:00 AM 24.3631 41.8365 43° Northeast  Level Estimated
Mon 10:04:00 AM 24.4600 41.9363 43° Northeast  Level Estimated
Mon 10:05:00 AM 24.5569 42.0362 43° Northeast  Level Estimated
Mon 10:06:00 AM 24.6537 42.1362 43° Northeast  Level Estimated
Mon 10:07:00 AM 24.7504 42.2365 43° Northeast  Level Estimated
Mon 10:08:00 AM 24.8471 42.3368 43° Northeast  Level Estimated
Mon 10:09:00 AM 24.9437 42.4374 43° Northeast  Level Estimated
Mon 10:10:00 AM 25.0402 42.5380 43° Northeast  Level Estimated
Mon 10:11:00 AM 25.1367 42.6389 43° Northeast  Level Estimated
Mon 10:12:00 AM 25.2330 42.7399 43° Northeast  Level Estimated
Mon 10:13:00 AM 25.3294 42.8411 43° Northeast  Level Estimated
Mon 10:14:00 AM 25.4256 42.9424 44° Northeast  Level Estimated
Mon 10:15:00 AM 25.5218 43.0439 44° Northeast  Level Estimated
Mon 10:16:00 AM 25.6180 43.1455 44° Northeast  Level Estimated
Mon 10:17:00 AM 25.7140 43.2473 44° Northeast  Level Estimated
Mon 10:18:00 AM 25.8100 43.3493 44° Northeast  Level Estimated
Mon 10:19:00 AM 25.9059 43.4515 44° Northeast  Level Estimated
Mon 10:20:00 AM 26.0017 43.5538 44° Northeast  Level Estimated
Mon 10:21:00 AM 26.0975 43.6563 44° Northeast  Level Estimated
Mon 10:22:00 AM 26.1932 43.7589 44° Northeast  Level Estimated
Mon 10:23:00 AM 26.2888 43.8617 44° Northeast  Level Estimated
Mon 10:24:00 AM 26.3843 43.9647 44° Northeast  Level Estimated
Mon 10:25:00 AM 26.4798 44.0679 44° Northeast  Level Estimated
Mon 10:26:00 AM 26.5752 44.1712 44° Northeast  Level Estimated
Mon 10:27:00 AM 26.6705 44.2747 44° Northeast  Level Estimated
Mon 10:28:00 AM 26.7658 44.3784 44° Northeast  Level Estimated
Mon 10:29:00 AM 26.8609 44.4822 44° Northeast  Level Estimated
Mon 10:30:00 AM 26.9560 44.5862 44° Northeast  Level Estimated
Mon 10:31:00 AM 27.0511 44.6904 44° Northeast  Level Estimated
Mon 10:32:00 AM 27.1460 44.7948 44° Northeast  Level Estimated
Mon 10:33:00 AM 27.2409 44.8994 44° Northeast  Level Estimated
Mon 10:34:00 AM 27.3356 45.0041 44° Northeast  Level Estimated
Mon 10:35:00 AM 27.4304 45.1090 45° Northeast  Level Estimated
Mon 10:36:00 AM 27.5250 45.2141 45° Northeast  Level Estimated
Mon 10:37:00 AM 27.6195 45.3194 45° Northeast  Level Estimated
Mon 10:38:00 AM 27.7140 45.4248 45° Northeast  Level Estimated
Mon 10:39:00 AM 27.8084 45.5304 45° Northeast  Level Estimated
Mon 10:40:00 AM 27.9027 45.6363 45° Northeast  Level Estimated
Mon 10:41:00 AM 27.9969 45.7423 45° Northeast  Level Estimated
Mon 10:42:00 AM 28.0911 45.8484 45° Northeast  Level Estimated
Mon 10:43:00 AM 28.1852 45.9548 45° Northeast  Level Estimated
Mon 10:44:00 AM 28.2791 46.0614 45° Northeast  Level Estimated
Mon 10:45:00 AM 28.3352 46.1251 45° Northeast  Level Estimated
Mon 10:46:00 AM 28.3352 46.1251 North  Level Estimated
Mon 10:47:00 AM 28.3352 46.1251 North  Level Estimated
Mon 10:48:00 AM 28.3352 46.1251 North  Level Estimated
Mon 10:49:00 AM 28.3352 46.1251 North  Level Estimated
Mon 10:50:00 AM 28.3352 46.1251 North  Level Estimated
Mon 10:51:00 AM 28.3352 46.1251 North  Level Estimated
Mon 10:52:00 AM 28.3352 46.1251 North  Level Estimated
Mon 10:53:00 AM 28.3352 46.1251 North  Level Estimated
Mon 10:54:00 AM 28.3352 46.1251 North  Level Estimated
Mon 10:55:00 AM 28.3352 46.1251 North  Level Estimated
Mon 10:56:00 AM 28.3352 46.1251 North  Level Estimated
Mon 10:57:00 AM 28.3352 46.1251 North  Level Estimated
Mon 10:58:00 AM 28.3352 46.1251 North  Level Estimated
Mon 10:59:00 AM 28.3352 46.1251 North  Level Estimated

Login

Don't have an account? Register now (free) for customized features, flight alerts, and more!